Portada
METAR-TAF:

METAR-TAF

Aeroports :

Aeroport Santos Dumont

Rio de Janeiro, Rio de Janeiro, Brasil

latitud: 22-54S, longitud: 043-10W, altitud: 3 m

Observació

L'informe es va fer fa 36 minuts, a les 18:00 UTC
Vent 11 kt del Sud/Sud-Est
Temperatura 27°C
Humitat 79%
Pressió 1019 hPa
Visibilitat 10 km o més
sense núvols per sota de 1500 mi sense presència de cumulonimbus.

METAR: SBRJ 161800Z 16011KT CAVOK 27/23 Q1019

Hora: 15:36 (18:36 UTC)

Pronòstic

L'informe es va fer fa 9 hores i 21 minuts, a les 09:15 UTC
Pronòstic vàlid del 16 a les 12 UTC al 16 a les 24 UTC
Vent 5 kt del Nord
Visibilitat 10 km o més
sense núvols per sota de 1500 mi sense presència de cumulonimbus.
Evolucionant progressivament
l' 16 a les 15 UTC al 16 a les 16 UTC
Vent 10 kt del Sud

TAF: SBRJ 160915Z 1612/1624 01005KT CAVOK TX27/1618Z TN25/1624Z BECMG 1615/1616 17010KT RMK PHQ

Observacions i pronòstics meteorològics de més de 4000 aeroports (METAR i TAF).

Les estacions disponibles són els punts grocs i vermells al mapa.

Posi el ratolí al punt desitjat per veure el nom de l'estació.

Feu clic per veure les observacions i els pronòstics meteorològics.

Per canviar el mapa: feu clic els botons verds amb una creu de color negre per apropar; al botó verd amb un guió per allunyar la imatge; o en les fletxes verdes per a mapes adjacents.


METAR-TAF: